createdAt,value
2022-08-31T00:00:51.737Z,16.15
2022-08-31T00:03:42.683Z,13.18
2022-08-31T00:06:12.057Z,14.80
2022-08-31T00:08:41.161Z,16.35
2022-08-31T00:11:14.241Z,12.65
2022-08-31T00:13:46.089Z,13.50
2022-08-31T00:16:15.390Z,9.88
2022-08-31T00:18:46.640Z,13.52
2022-08-31T00:21:20.861Z,9.45
2022-08-31T00:23:56.728Z,12.25
2022-08-31T00:26:26.634Z,13.35
2022-08-31T00:28:57.808Z,11.75
2022-08-31T00:31:27.168Z,8.60
2022-08-31T00:33:56.347Z,12.55
2022-08-31T00:36:27.090Z,10.82
2022-08-31T00:41:32.817Z,9.60
2022-08-31T00:44:11.555Z,10.80
2022-08-31T00:46:42.863Z,10.45
2022-08-31T00:49:15.422Z,8.30
2022-08-31T00:51:54.619Z,9.93
2022-08-31T00:54:32.218Z,9.82
2022-08-31T00:57:06.873Z,9.95
2022-08-31T00:59:40.000Z,10.07
2022-08-31T01:02:11.561Z,10.30
2022-08-31T01:04:47.155Z,11.75
2022-08-31T01:07:16.952Z,12.00
2022-08-31T01:09:55.429Z,7.05
2022-08-31T01:12:36.541Z,12.70
2022-08-31T01:15:15.508Z,9.95
2022-08-31T01:17:46.300Z,11.52
2022-08-31T01:20:23.424Z,9.18
2022-08-31T01:23:12.288Z,9.73
2022-08-31T01:25:45.022Z,8.35
2022-08-31T01:28:15.278Z,11.82
2022-08-31T01:30:46.361Z,8.75
2022-08-31T01:33:15.494Z,11.45
2022-08-31T01:35:52.057Z,9.27
2022-08-31T01:38:23.614Z,10.45
2022-08-31T01:41:01.528Z,11.88
2022-08-31T01:43:38.072Z,9.18
2022-08-31T01:48:46.611Z,13.68
2022-08-31T01:51:18.808Z,11.90
2022-08-31T01:53:58.292Z,10.35
2022-08-31T01:56:32.374Z,11.77
2022-08-31T01:59:10.195Z,10.77
2022-08-31T02:02:02.372Z,9.38
2022-08-31T02:04:39.066Z,10.55
2022-08-31T02:07:08.253Z,10.80
2022-08-31T02:09:39.348Z,11.88
2022-08-31T02:12:08.928Z,13.00
2022-08-31T02:14:47.587Z,9.77
2022-08-31T02:17:17.036Z,9.18
2022-08-31T02:19:46.259Z,11.00
2022-08-31T02:22:16.896Z,11.15
2022-08-31T02:24:48.077Z,9.20
2022-08-31T02:27:17.277Z,10.10
2022-08-31T02:29:46.599Z,12.45
2022-08-31T02:32:20.825Z,12.93
2022-08-31T02:34:50.164Z,13.50
2022-08-31T02:37:21.130Z,9.27
2022-08-31T02:39:52.904Z,13.07
2022-08-31T02:42:23.637Z,10.18
2022-08-31T02:45:10.458Z,11.57
2022-08-31T02:47:40.098Z,11.93
2022-08-31T02:50:16.712Z,11.80
2022-08-31T02:52:52.735Z,10.57
2022-08-31T02:55:24.342Z,9.20
2022-08-31T03:00:27.762Z,10.32
2022-08-31T03:02:57.107Z,11.75
2022-08-31T03:05:27.602Z,10.00
2022-08-31T03:07:56.936Z,15.57
2022-08-31T03:10:28.460Z,13.88
2022-08-31T03:15:29.655Z,11.10
2022-08-31T03:18:00.402Z,9.20
2022-08-31T03:20:35.911Z,13.95
2022-08-31T03:23:06.275Z,12.18
2022-08-31T03:25:39.587Z,8.88
2022-08-31T03:28:10.110Z,11.02
2022-08-31T03:30:42.858Z,11.82
2022-08-31T03:35:45.701Z,10.88
2022-08-31T03:38:17.585Z,11.07
2022-08-31T03:43:25.418Z,10.57
2022-08-31T03:45:55.696Z,8.63
2022-08-31T03:48:25.048Z,13.07
2022-08-31T03:50:54.134Z,8.50
2022-08-31T03:53:32.894Z,11.40
2022-08-31T03:56:08.492Z,10.77
2022-08-31T03:58:46.264Z,9.02
2022-08-31T04:01:32.748Z,9.95
2022-08-31T04:04:41.889Z,9.32
2022-08-31T04:07:42.558Z,11.30
2022-08-31T04:10:50.314Z,8.98
2022-08-31T04:13:44.900Z,10.00
2022-08-31T04:16:25.715Z,9.68
2022-08-31T04:19:15.576Z,9.60
2022-08-31T04:21:59.405Z,9.95
2022-08-31T04:24:35.358Z,9.68
2022-08-31T04:27:04.899Z,10.52
2022-08-31T04:29:36.001Z,11.70
2022-08-31T04:34:56.073Z,11.50
2022-08-31T04:37:27.515Z,9.38
2022-08-31T04:39:59.121Z,8.93
2022-08-31T04:45:01.025Z,8.35
2022-08-31T04:47:33.291Z,8.32
2022-08-31T04:50:02.582Z,13.75
2022-08-31T04:52:37.671Z,12.52
2022-08-31T04:55:08.442Z,7.97
2022-08-31T04:57:38.150Z,11.30
2022-08-31T05:00:14.254Z,10.15
2022-08-31T05:03:17.646Z,6.90
2022-08-31T05:05:50.374Z,10.07
2022-08-31T05:08:25.594Z,8.80
2022-08-31T05:10:54.900Z,10.43
2022-08-31T05:13:24.307Z,8.93
2022-08-31T05:15:57.767Z,10.63
2022-08-31T05:18:27.401Z,7.50
2022-08-31T05:21:00.059Z,11.07
2022-08-31T05:23:30.011Z,11.40
2022-08-31T05:25:59.918Z,7.25
2022-08-31T05:28:30.756Z,8.30
2022-08-31T05:31:08.066Z,9.90
2022-08-31T05:33:44.466Z,8.73
2022-08-31T05:36:22.249Z,8.15
2022-08-31T05:38:55.571Z,7.07
2022-08-31T05:41:29.245Z,5.97
2022-08-31T05:43:58.521Z,8.45
2022-08-31T05:46:29.869Z,7.22
2022-08-31T05:48:59.835Z,10.93
2022-08-31T05:51:28.975Z,5.68
2022-08-31T05:54:00.734Z,5.30
2022-08-31T05:56:30.808Z,8.13
2022-08-31T05:59:00.077Z,6.72
2022-08-31T06:01:34.623Z,10.32
2022-08-31T06:04:10.436Z,6.22
2022-08-31T06:06:45.366Z,9.70
2022-08-31T06:09:16.644Z,7.07
2022-08-31T06:11:47.542Z,10.95
2022-08-31T06:14:22.445Z,7.18
2022-08-31T06:17:04.811Z,8.60
2022-08-31T06:19:38.426Z,7.72
2022-08-31T06:22:09.164Z,9.48
2022-08-31T06:24:38.924Z,8.55
2022-08-31T06:27:09.955Z,7.78
2022-08-31T06:29:41.747Z,14.00
2022-08-31T06:32:15.357Z,8.07
2022-08-31T06:34:52.865Z,9.50
2022-08-31T06:37:47.124Z,7.25
2022-08-31T06:40:29.605Z,7.10
2022-08-31T06:43:28.147Z,7.45
2022-08-31T06:46:04.117Z,5.32
2022-08-31T06:48:56.250Z,3.85
2022-08-31T06:51:26.470Z,4.50
2022-08-31T06:53:56.052Z,7.38
2022-08-31T06:56:54.845Z,4.82
2022-08-31T06:59:54.328Z,9.50
2022-08-31T07:02:42.872Z,3.90
2022-08-31T07:05:19.882Z,6.28
2022-08-31T07:07:49.659Z,8.45
2022-08-31T07:10:19.074Z,6.20
2022-08-31T07:12:48.391Z,5.97
2022-08-31T07:15:17.665Z,7.93
2022-08-31T07:17:49.370Z,5.53
2022-08-31T07:20:28.320Z,6.32
2022-08-31T07:22:57.931Z,7.32
2022-08-31T07:25:35.039Z,5.47
2022-08-31T07:28:10.685Z,4.68
2022-08-31T07:30:42.327Z,7.03
2022-08-31T07:33:14.484Z,7.30
2022-08-31T07:35:57.045Z,9.02
2022-08-31T07:39:06.001Z,10.45
2022-08-31T07:41:50.273Z,8.88
2022-08-31T07:44:20.800Z,11.10
2022-08-31T07:46:55.568Z,6.38
2022-08-31T07:49:26.276Z,5.75
2022-08-31T07:52:14.767Z,4.97
2022-08-31T07:55:08.916Z,4.18
2022-08-31T07:57:53.536Z,4.45
2022-08-31T08:00:26.348Z,4.18
2022-08-31T08:03:07.273Z,6.97
2022-08-31T08:05:55.943Z,5.35
2022-08-31T08:09:21.613Z,3.85
2022-08-31T08:12:04.470Z,2.50
2022-08-31T08:14:46.728Z,5.35
2022-08-31T08:17:39.168Z,10.50
2022-08-31T08:20:14.522Z,6.70
2022-08-31T08:22:55.679Z,4.45
2022-08-31T08:25:43.155Z,6.55
2022-08-31T08:28:39.715Z,4.93
2022-08-31T08:31:18.026Z,3.53
2022-08-31T08:33:49.029Z,6.43
2022-08-31T08:36:24.133Z,4.90
2022-08-31T08:38:56.894Z,3.83
2022-08-31T08:41:38.675Z,6.43
2022-08-31T08:44:11.845Z,6.90
2022-08-31T08:46:56.040Z,2.92
2022-08-31T08:49:39.854Z,3.88
2022-08-31T08:52:14.451Z,5.32
2022-08-31T08:54:56.030Z,5.97
2022-08-31T08:57:36.012Z,4.95
2022-08-31T09:00:12.478Z,3.72
2022-08-31T09:02:51.322Z,2.50
2022-08-31T09:05:49.468Z,3.63
2022-08-31T09:09:04.700Z,6.78
2022-08-31T09:11:46.165Z,6.18
2022-08-31T09:14:29.827Z,5.05
2022-08-31T09:17:06.634Z,3.65
2022-08-31T09:19:56.731Z,7.03
2022-08-31T09:22:26.175Z,8.00
2022-08-31T09:24:59.190Z,6.30
2022-08-31T09:27:56.981Z,6.55
2022-08-31T09:30:42.901Z,3.72
2022-08-31T09:33:19.952Z,5.55
2022-08-31T09:35:56.302Z,3.97
2022-08-31T09:38:33.721Z,2.75
2022-08-31T09:41:03.514Z,3.00
2022-08-31T09:43:38.223Z,3.67
2022-08-31T09:46:12.249Z,2.42
2022-08-31T09:48:51.057Z,4.95
2022-08-31T09:51:27.802Z,3.88
2022-08-31T09:54:11.122Z,4.15
2022-08-31T09:56:54.982Z,2.92
2022-08-31T09:59:43.749Z,3.90
2022-08-31T10:02:38.118Z,2.75
2022-08-31T10:05:25.988Z,2.58
2022-08-31T10:08:03.883Z,2.90
2022-08-31T10:10:36.725Z,2.22
2022-08-31T10:13:18.435Z,4.18
2022-08-31T10:15:57.483Z,2.47
2022-08-31T10:18:37.719Z,1.58
2022-08-31T10:21:10.910Z,1.85
2022-08-31T10:23:53.897Z,5.35
2022-08-31T10:26:31.294Z,3.22
2022-08-31T10:29:05.831Z,3.42
2022-08-31T10:31:44.611Z,2.70
2022-08-31T10:34:42.699Z,2.33
2022-08-31T10:37:18.029Z,1.73
2022-08-31T10:39:50.423Z,2.55
2022-08-31T10:42:26.780Z,3.35
2022-08-31T10:45:00.365Z,2.35
2022-08-31T10:47:41.151Z,5.00
2022-08-31T10:50:20.104Z,0.97
2022-08-31T10:53:02.360Z,8.80
2022-08-31T10:55:39.133Z,2.15
2022-08-31T10:58:20.148Z,3.53
2022-08-31T11:00:55.466Z,2.23
2022-08-31T11:03:45.071Z,4.05
2022-08-31T11:06:34.324Z,1.38
2022-08-31T11:09:17.973Z,4.75
2022-08-31T11:11:51.552Z,5.68
2022-08-31T11:14:50.113Z,2.92
2022-08-31T11:17:43.368Z,2.45
2022-08-31T11:20:23.463Z,2.97
2022-08-31T11:23:28.626Z,3.65
2022-08-31T11:26:36.755Z,2.60
2022-08-31T11:29:16.195Z,4.75
2022-08-31T11:31:46.357Z,4.88
2022-08-31T11:34:25.323Z,5.88
2022-08-31T11:36:57.065Z,8.63
2022-08-31T11:39:51.009Z,8.40
2022-08-31T11:43:00.629Z,6.97
2022-08-31T11:45:37.097Z,3.80
2022-08-31T11:48:11.904Z,4.70
2022-08-31T11:51:06.782Z,2.55
2022-08-31T11:53:40.711Z,1.85
2022-08-31T11:56:14.069Z,3.38
2022-08-31T11:58:49.830Z,3.60
2022-08-31T12:01:42.736Z,4.78
2022-08-31T12:04:46.279Z,3.80
2022-08-31T12:07:20.265Z,3.40
2022-08-31T12:10:27.522Z,1.65
2022-08-31T12:13:24.013Z,4.97
2022-08-31T12:16:19.492Z,1.80
2022-08-31T12:19:00.705Z,6.32
2022-08-31T12:21:55.250Z,1.52
2022-08-31T12:24:49.144Z,2.63
2022-08-31T12:27:34.001Z,2.25
2022-08-31T12:30:20.638Z,6.43
2022-08-31T12:32:59.632Z,6.55
2022-08-31T12:35:30.643Z,11.35
2022-08-31T12:38:05.070Z,2.53
2022-08-31T12:40:37.102Z,3.83
2022-08-31T12:43:22.424Z,0.77
2022-08-31T12:46:23.705Z,4.85
2022-08-31T12:49:15.444Z,11.47
2022-08-31T12:57:27.144Z,2.63
2022-08-31T13:00:03.846Z,4.05
2022-08-31T13:05:20.863Z,3.72
2022-08-31T13:07:55.456Z,2.65
2022-08-31T13:10:33.439Z,0.93
2022-08-31T13:13:11.791Z,6.38
2022-08-31T13:15:44.857Z,3.15
2022-08-31T13:18:16.455Z,2.28
2022-08-31T13:23:23.989Z,0.60
2022-08-31T13:26:05.873Z,5.28
2022-08-31T13:28:37.553Z,2.22
2022-08-31T13:31:09.689Z,4.45
2022-08-31T13:33:41.233Z,2.45
2022-08-31T13:36:23.617Z,3.70
2022-08-31T13:38:54.841Z,0.57
2022-08-31T13:41:28.240Z,2.75
2022-08-31T13:44:02.854Z,0.65
2022-08-31T13:46:44.706Z,3.22
2022-08-31T13:49:30.899Z,7.32
2022-08-31T13:52:07.579Z,1.70
2022-08-31T13:54:38.485Z,7.15
2022-08-31T13:57:22.354Z,3.00
2022-08-31T14:00:20.236Z,1.80
2022-08-31T14:02:55.532Z,2.42
2022-08-31T14:05:31.682Z,2.35
2022-08-31T14:08:04.398Z,0.60
2022-08-31T14:10:38.688Z,3.90
2022-08-31T14:13:20.979Z,0.55
2022-08-31T14:15:56.287Z,3.63
2022-08-31T14:18:29.221Z,2.53
2022-08-31T14:21:22.288Z,1.33
2022-08-31T14:24:00.608Z,5.55
2022-08-31T14:26:31.726Z,4.00
2022-08-31T14:29:09.247Z,0.40
2022-08-31T14:31:48.100Z,1.73
2022-08-31T14:34:26.901Z,2.53
2022-08-31T14:37:01.891Z,0.98
2022-08-31T14:39:34.114Z,8.43
2022-08-31T14:42:11.300Z,0.85
2022-08-31T14:44:44.319Z,1.60
2022-08-31T14:47:15.434Z,1.83
2022-08-31T14:49:45.015Z,3.15
2022-08-31T14:52:16.035Z,1.02
2022-08-31T14:54:50.272Z,3.72
2022-08-31T14:57:25.127Z,0.55
2022-08-31T14:59:57.160Z,4.10
2022-08-31T15:02:32.918Z,3.85
2022-08-31T15:05:05.908Z,0.75
2022-08-31T15:07:37.152Z,0.75
2022-08-31T15:10:08.409Z,0.52
2022-08-31T15:12:37.731Z,0.70
2022-08-31T15:15:10.659Z,0.75
2022-08-31T15:17:42.798Z,1.17
2022-08-31T15:20:22.889Z,3.92
2022-08-31T15:22:52.655Z,1.73
2022-08-31T15:25:25.790Z,0.47
2022-08-31T15:27:55.059Z,5.18
2022-08-31T15:30:24.416Z,1.80
2022-08-31T15:32:56.725Z,3.35
2022-08-31T15:35:29.767Z,3.03
2022-08-31T15:38:06.104Z,4.47
2022-08-31T15:40:39.002Z,1.77
2022-08-31T15:43:15.464Z,1.95
2022-08-31T15:45:44.985Z,1.50
2022-08-31T15:48:29.143Z,1.48
2022-08-31T15:50:59.696Z,2.35
2022-08-31T15:53:31.964Z,1.77
2022-08-31T15:58:40.872Z,5.25
2022-08-31T16:01:15.614Z,4.70
2022-08-31T16:03:56.780Z,2.63
2022-08-31T16:06:32.188Z,1.58
2022-08-31T16:09:04.021Z,6.95
2022-08-31T16:11:36.988Z,4.10
2022-08-31T16:14:10.636Z,9.55
2022-08-31T16:16:42.929Z,3.83
2022-08-31T16:19:34.510Z,3.58
2022-08-31T16:22:07.215Z,3.05
2022-08-31T16:24:42.752Z,3.88
2022-08-31T16:27:16.400Z,2.67
2022-08-31T16:29:46.399Z,1.45
2022-08-31T16:32:15.812Z,3.33
2022-08-31T16:34:47.352Z,3.00
2022-08-31T16:37:16.649Z,4.25
2022-08-31T16:39:47.885Z,4.90
2022-08-31T16:42:18.180Z,4.38
2022-08-31T16:44:48.901Z,0.30
2022-08-31T16:47:20.361Z,2.10
2022-08-31T16:49:51.261Z,4.68
2022-08-31T16:52:23.808Z,4.82
2022-08-31T16:54:55.825Z,0.50
2022-08-31T16:57:27.752Z,1.88
2022-08-31T16:59:58.903Z,9.73
2022-08-31T17:02:33.203Z,1.45
2022-08-31T17:05:09.899Z,1.60
2022-08-31T17:07:42.358Z,3.00
2022-08-31T17:10:12.380Z,1.85
2022-08-31T17:12:42.867Z,4.10
2022-08-31T17:15:13.742Z,0.98
2022-08-31T17:17:47.779Z,3.20
2022-08-31T17:20:21.290Z,4.43
2022-08-31T17:22:50.635Z,2.95
2022-08-31T17:25:21.073Z,0.73
2022-08-31T17:27:59.363Z,1.02
2022-08-31T17:30:31.884Z,1.83
2022-08-31T17:33:01.240Z,1.65
2022-08-31T17:35:33.144Z,0.93
2022-08-31T17:38:03.002Z,0.98
2022-08-31T17:40:32.385Z,0.95
2022-08-31T17:43:04.420Z,0.90
2022-08-31T17:45:34.149Z,5.80
2022-08-31T17:48:04.037Z,1.02
2022-08-31T17:50:36.165Z,2.75
2022-08-31T17:53:06.167Z,0.82
2022-08-31T17:55:35.618Z,1.52
2022-08-31T17:58:05.840Z,1.95
2022-08-31T18:00:36.362Z,0.85
2022-08-31T18:03:10.877Z,1.42
2022-08-31T18:05:46.039Z,4.60
2022-08-31T18:08:16.135Z,0.80
2022-08-31T18:10:52.085Z,4.28
2022-08-31T18:13:24.301Z,1.17
2022-08-31T18:15:54.881Z,1.33
2022-08-31T18:18:24.782Z,0.65
2022-08-31T18:20:56.655Z,0.68
2022-08-31T18:23:26.448Z,0.35
2022-08-31T18:25:55.792Z,0.77
2022-08-31T18:28:25.525Z,2.47
2022-08-31T18:30:55.536Z,0.20
2022-08-31T18:33:25.254Z,0.63
2022-08-31T18:36:08.105Z,0.25
2022-08-31T18:38:38.067Z,3.38
2022-08-31T18:41:26.204Z,0.90
2022-08-31T18:44:09.361Z,0.68
2022-08-31T18:46:39.395Z,0.52
2022-08-31T18:49:14.220Z,0.77
2022-08-31T18:51:46.201Z,2.70
2022-08-31T18:54:22.968Z,0.45
2022-08-31T18:56:53.243Z,1.85
2022-08-31T18:59:23.705Z,0.55
2022-08-31T19:01:53.680Z,0.73
2022-08-31T19:04:24.215Z,0.68
2022-08-31T19:06:57.853Z,1.90
2022-08-31T19:09:32.523Z,0.50
2022-08-31T19:12:04.516Z,0.30
2022-08-31T19:14:37.846Z,1.00
2022-08-31T19:17:07.905Z,3.28
2022-08-31T19:19:37.756Z,2.05
2022-08-31T19:22:09.732Z,2.95
2022-08-31T19:24:40.734Z,1.67
2022-08-31T19:27:16.042Z,1.40
2022-08-31T19:29:45.750Z,0.30
2022-08-31T19:32:16.665Z,1.20
2022-08-31T19:34:48.059Z,4.07
2022-08-31T19:37:20.209Z,1.42
2022-08-31T19:39:49.967Z,0.82
2022-08-31T19:42:21.570Z,0.60
2022-08-31T19:47:41.500Z,0.20
2022-08-31T19:50:14.701Z,1.38
2022-08-31T19:52:51.815Z,2.42
2022-08-31T19:55:21.223Z,2.15
2022-08-31T19:57:50.866Z,1.75
2022-08-31T20:00:21.206Z,1.65
2022-08-31T20:02:51.022Z,0.68
2022-08-31T20:05:26.379Z,1.65
2022-08-31T20:08:00.302Z,0.52
2022-08-31T20:10:34.979Z,0.95
2022-08-31T20:13:04.534Z,0.45
2022-08-31T20:15:42.198Z,0.80
2022-08-31T20:18:13.259Z,1.67
2022-08-31T20:23:22.341Z,0.93
2022-08-31T20:25:56.522Z,2.13
2022-08-31T20:28:27.180Z,1.63
2022-08-31T20:30:59.630Z,1.40
2022-08-31T20:33:29.901Z,6.38
2022-08-31T20:35:59.070Z,0.60
2022-08-31T20:38:39.771Z,2.55
2022-08-31T20:41:09.337Z,0.82
2022-08-31T20:43:39.211Z,1.02
2022-08-31T20:46:30.250Z,2.33
2022-08-31T20:49:17.649Z,1.10
2022-08-31T20:51:47.143Z,1.58
2022-08-31T20:54:19.142Z,1.95
2022-08-31T20:56:56.041Z,3.67
2022-08-31T20:59:25.814Z,0.90
2022-08-31T21:01:58.848Z,2.47
2022-08-31T21:04:29.466Z,0.50
2022-08-31T21:07:02.028Z,0.45
2022-08-31T21:09:33.413Z,0.88
2022-08-31T21:12:03.548Z,0.40
2022-08-31T21:14:34.532Z,0.50
2022-08-31T21:17:10.830Z,2.75
2022-08-31T21:19:41.506Z,0.50
2022-08-31T21:22:12.718Z,0.45
2022-08-31T21:24:44.801Z,0.50
2022-08-31T21:27:21.449Z,1.58
2022-08-31T21:29:50.989Z,0.77
2022-08-31T21:32:20.107Z,2.63
2022-08-31T21:37:32.767Z,0.85
2022-08-31T21:40:04.276Z,1.70
2022-08-31T21:42:40.022Z,2.13
2022-08-31T21:45:10.576Z,0.85
2022-08-31T21:47:39.721Z,1.27
2022-08-31T21:50:10.962Z,2.13
2022-08-31T21:52:45.186Z,0.80
2022-08-31T21:55:17.662Z,0.90
2022-08-31T21:57:51.907Z,1.85
2022-08-31T22:00:33.961Z,1.58
2022-08-31T22:03:04.622Z,2.85
2022-08-31T22:05:44.262Z,1.65
2022-08-31T22:08:13.748Z,1.38
2022-08-31T22:10:45.965Z,1.05
2022-08-31T22:13:21.576Z,0.73
2022-08-31T22:15:56.203Z,2.65
2022-08-31T22:18:59.057Z,1.10
2022-08-31T22:21:24.673Z,0.47
2022-08-31T22:23:55.741Z,1.33
2022-08-31T22:26:41.863Z,1.60
2022-08-31T22:29:14.062Z,0.40
2022-08-31T22:31:44.169Z,0.50
2022-08-31T22:34:13.585Z,2.60
2022-08-31T22:36:50.371Z,3.17
2022-08-31T22:39:23.139Z,0.68
2022-08-31T22:41:54.969Z,3.33
2022-08-31T22:44:26.694Z,0.80
2022-08-31T22:49:30.565Z,2.20
2022-08-31T22:51:59.763Z,0.98
2022-08-31T22:54:29.131Z,3.38
2022-08-31T22:57:00.202Z,1.55
2022-08-31T22:59:30.137Z,3.50
2022-08-31T23:02:03.199Z,2.35
2022-08-31T23:04:35.009Z,0.50
2022-08-31T23:07:05.443Z,1.55
2022-08-31T23:12:07.866Z,0.50
2022-08-31T23:14:41.043Z,2.17
2022-08-31T23:17:11.048Z,0.98
2022-08-31T23:19:48.329Z,2.03
2022-08-31T23:22:18.077Z,1.52
2022-08-31T23:24:57.902Z,4.95
2022-08-31T23:27:29.757Z,0.77
2022-08-31T23:30:08.292Z,1.17
2022-08-31T23:32:37.856Z,1.80
2022-08-31T23:35:08.430Z,0.90
2022-08-31T23:37:37.991Z,1.05
2022-08-31T23:40:14.266Z,1.60
2022-08-31T23:45:15.780Z,1.95
2022-08-31T23:47:44.830Z,6.43
2022-08-31T23:52:53.648Z,0.90
2022-08-31T23:55:30.672Z,0.85
2022-08-31T23:58:02.103Z,2.72
